sensor_id;sensor_type;location;lat;lon;timestamp;pressure;altitude;pressure_sealevel;temperature
7389;BMP180;3735;50.136;11.062;2023-06-19T00:01:13;97835.00;;;19.20
7389;BMP180;3735;50.136;11.062;2023-06-19T00:03:39;97835.00;;;19.20
7389;BMP180;3735;50.136;11.062;2023-06-19T00:06:06;97824.00;;;19.10
7389;BMP180;3735;50.136;11.062;2023-06-19T00:08:32;97835.00;;;19.10
7389;BMP180;3735;50.136;11.062;2023-06-19T00:10:57;97840.00;;;19.00
7389;BMP180;3735;50.136;11.062;2023-06-19T00:13:23;97838.00;;;19.00
7389;BMP180;3735;50.136;11.062;2023-06-19T00:15:49;97832.00;;;18.80
7389;BMP180;3735;50.136;11.062;2023-06-19T00:18:15;97835.00;;;18.90
7389;BMP180;3735;50.136;11.062;2023-06-19T00:20:42;97826.00;;;18.80
7389;BMP180;3735;50.136;11.062;2023-06-19T00:23:12;97834.00;;;18.80
7389;BMP180;3735;50.136;11.062;2023-06-19T00:25:40;97833.00;;;18.70
7389;BMP180;3735;50.136;11.062;2023-06-19T00:28:06;97823.00;;;18.70
7389;BMP180;3735;50.136;11.062;2023-06-19T00:30:37;97826.00;;;18.80
7389;BMP180;3735;50.136;11.062;2023-06-19T00:33:04;97825.00;;;18.70
7389;BMP180;3735;50.136;11.062;2023-06-19T00:35:30;97818.00;;;18.80
7389;BMP180;3735;50.136;11.062;2023-06-19T00:37:56;97825.00;;;18.90
7389;BMP180;3735;50.136;11.062;2023-06-19T00:40:31;97826.00;;;18.90
7389;BMP180;3735;50.136;11.062;2023-06-19T00:42:58;97831.00;;;18.90
7389;BMP180;3735;50.136;11.062;2023-06-19T00:45:25;97832.00;;;18.90
7389;BMP180;3735;50.136;11.062;2023-06-19T00:47:55;97836.00;;;18.90
7389;BMP180;3735;50.136;11.062;2023-06-19T00:50:25;97835.00;;;18.90
7389;BMP180;3735;50.136;11.062;2023-06-19T00:52:51;97831.00;;;19.00
7389;BMP180;3735;50.136;11.062;2023-06-19T00:55:18;97832.00;;;19.00
7389;BMP180;3735;50.136;11.062;2023-06-19T00:57:45;97835.00;;;19.00
7389;BMP180;3735;50.136;11.062;2023-06-19T01:00:11;97829.00;;;19.10
7389;BMP180;3735;50.136;11.062;2023-06-19T01:02:39;97834.00;;;19.10
7389;BMP180;3735;50.136;11.062;2023-06-19T01:05:05;97832.00;;;19.00
7389;BMP180;3735;50.136;11.062;2023-06-19T01:07:49;97833.00;;;19.00
7389;BMP180;3735;50.136;11.062;2023-06-19T01:10:27;97827.00;;;19.10
7389;BMP180;3735;50.136;11.062;2023-06-19T01:13:15;97819.00;;;19.10
7389;BMP180;3735;50.136;11.062;2023-06-19T01:15:43;97816.00;;;19.00
7389;BMP180;3735;50.136;11.062;2023-06-19T01:18:10;97817.00;;;19.00
7389;BMP180;3735;50.136;11.062;2023-06-19T01:20:37;97823.00;;;18.90
7389;BMP180;3735;50.136;11.062;2023-06-19T01:23:08;97818.00;;;18.90
7389;BMP180;3735;50.136;11.062;2023-06-19T01:25:34;97809.00;;;18.90
7389;BMP180;3735;50.136;11.062;2023-06-19T01:28:05;97810.00;;;18.80
7389;BMP180;3735;50.136;11.062;2023-06-19T01:30:32;97824.00;;;18.70
7389;BMP180;3735;50.136;11.062;2023-06-19T01:33:15;97817.00;;;18.70
7389;BMP180;3735;50.136;11.062;2023-06-19T01:35:43;97819.00;;;18.70
7389;BMP180;3735;50.136;11.062;2023-06-19T01:38:12;97822.00;;;18.70
7389;BMP180;3735;50.136;11.062;2023-06-19T01:40:40;97819.00;;;18.70
7389;BMP180;3735;50.136;11.062;2023-06-19T01:43:08;97817.00;;;18.60
7389;BMP180;3735;50.136;11.062;2023-06-19T01:45:35;97804.00;;;18.60
7389;BMP180;3735;50.136;11.062;2023-06-19T01:48:01;97809.00;;;18.60
7389;BMP180;3735;50.136;11.062;2023-06-19T01:50:27;97813.00;;;18.60
7389;BMP180;3735;50.136;11.062;2023-06-19T01:52:53;97816.00;;;18.50
7389;BMP180;3735;50.136;11.062;2023-06-19T01:55:20;97812.00;;;18.50
7389;BMP180;3735;50.136;11.062;2023-06-19T01:57:46;97810.00;;;18.50
7389;BMP180;3735;50.136;11.062;2023-06-19T02:00:12;97808.00;;;18.60
7389;BMP180;3735;50.136;11.062;2023-06-19T02:02:38;97804.00;;;18.70
7389;BMP180;3735;50.136;11.062;2023-06-19T02:05:04;97809.00;;;18.70
7389;BMP180;3735;50.136;11.062;2023-06-19T02:07:31;97811.00;;;18.60
7389;BMP180;3735;50.136;11.062;2023-06-19T02:09:57;97813.00;;;18.60
7389;BMP180;3735;50.136;11.062;2023-06-19T02:12:23;97809.00;;;18.50
7389;BMP180;3735;50.136;11.062;2023-06-19T02:14:49;97799.00;;;18.40
7389;BMP180;3735;50.136;11.062;2023-06-19T02:17:15;97813.00;;;18.30
7389;BMP180;3735;50.136;11.062;2023-06-19T02:19:40;97813.00;;;18.30
7389;BMP180;3735;50.136;11.062;2023-06-19T02:22:06;97796.00;;;18.30
7389;BMP180;3735;50.136;11.062;2023-06-19T02:24:32;97804.00;;;18.30
7389;BMP180;3735;50.136;11.062;2023-06-19T02:26:58;97804.00;;;18.30
7389;BMP180;3735;50.136;11.062;2023-06-19T02:29:25;97800.00;;;18.30
7389;BMP180;3735;50.136;11.062;2023-06-19T02:31:51;97793.00;;;18.30
7389;BMP180;3735;50.136;11.062;2023-06-19T02:34:17;97798.00;;;18.30
7389;BMP180;3735;50.136;11.062;2023-06-19T02:36:43;97795.00;;;18.30
7389;BMP180;3735;50.136;11.062;2023-06-19T02:39:09;97806.00;;;18.20
7389;BMP180;3735;50.136;11.062;2023-06-19T02:41:35;97807.00;;;18.20
7389;BMP180;3735;50.136;11.062;2023-06-19T02:44:01;97806.00;;;18.10
7389;BMP180;3735;50.136;11.062;2023-06-19T02:46:27;97809.00;;;18.10
7389;BMP180;3735;50.136;11.062;2023-06-19T02:48:53;97806.00;;;18.00
7389;BMP180;3735;50.136;11.062;2023-06-19T02:51:18;97799.00;;;17.90
7389;BMP180;3735;50.136;11.062;2023-06-19T02:53:44;97806.00;;;18.00
7389;BMP180;3735;50.136;11.062;2023-06-19T02:56:11;97801.00;;;18.00
7389;BMP180;3735;50.136;11.062;2023-06-19T02:58:37;97807.00;;;18.00
7389;BMP180;3735;50.136;11.062;2023-06-19T03:01:05;97803.00;;;18.00
7389;BMP180;3735;50.136;11.062;2023-06-19T03:03:34;97800.00;;;18.00
7389;BMP180;3735;50.136;11.062;2023-06-19T03:06:07;97806.00;;;18.00
7389;BMP180;3735;50.136;11.062;2023-06-19T03:08:37;97809.00;;;18.00
7389;BMP180;3735;50.136;11.062;2023-06-19T03:11:03;97803.00;;;18.00
7389;BMP180;3735;50.136;11.062;2023-06-19T03:13:54;97805.00;;;18.00
7389;BMP180;3735;50.136;11.062;2023-06-19T03:16:21;97797.00;;;18.00
7389;BMP180;3735;50.136;11.062;2023-06-19T03:18:47;97796.00;;;18.00
7389;BMP180;3735;50.136;11.062;2023-06-19T03:21:14;97807.00;;;17.90
7389;BMP180;3735;50.136;11.062;2023-06-19T03:23:40;97807.00;;;17.90
7389;BMP180;3735;50.136;11.062;2023-06-19T03:26:07;97815.00;;;17.90
7389;BMP180;3735;50.136;11.062;2023-06-19T03:28:33;97808.00;;;17.80
7389;BMP180;3735;50.136;11.062;2023-06-19T03:30:59;97817.00;;;17.70
7389;BMP180;3735;50.136;11.062;2023-06-19T03:33:26;97814.00;;;17.70
7389;BMP180;3735;50.136;11.062;2023-06-19T03:35:52;97816.00;;;17.70
7389;BMP180;3735;50.136;11.062;2023-06-19T03:38:18;97813.00;;;17.70
7389;BMP180;3735;50.136;11.062;2023-06-19T03:40:43;97809.00;;;17.60
7389;BMP180;3735;50.136;11.062;2023-06-19T03:43:09;97812.00;;;17.60
7389;BMP180;3735;50.136;11.062;2023-06-19T03:45:36;97824.00;;;17.60
7389;BMP180;3735;50.136;11.062;2023-06-19T03:48:02;97831.00;;;17.50
7389;BMP180;3735;50.136;11.062;2023-06-19T03:50:28;97829.00;;;17.50
7389;BMP180;3735;50.136;11.062;2023-06-19T03:52:54;97833.00;;;17.50
7389;BMP180;3735;50.136;11.062;2023-06-19T03:55:20;97834.00;;;17.50
7389;BMP180;3735;50.136;11.062;2023-06-19T03:57:45;97834.00;;;17.40
7389;BMP180;3735;50.136;11.062;2023-06-19T04:00:13;97831.00;;;17.50
7389;BMP180;3735;50.136;11.062;2023-06-19T04:02:39;97833.00;;;17.50
7389;BMP180;3735;50.136;11.062;2023-06-19T04:05:06;97834.00;;;17.60
7389;BMP180;3735;50.136;11.062;2023-06-19T04:07:32;97838.00;;;17.60
7389;BMP180;3735;50.136;11.062;2023-06-19T04:09:58;97841.00;;;17.60
7389;BMP180;3735;50.136;11.062;2023-06-19T04:12:25;97840.00;;;17.60
7389;BMP180;3735;50.136;11.062;2023-06-19T04:14:50;97837.00;;;17.70
7389;BMP180;3735;50.136;11.062;2023-06-19T04:17:17;97831.00;;;17.80
7389;BMP180;3735;50.136;11.062;2023-06-19T04:19:42;97844.00;;;17.80
7389;BMP180;3735;50.136;11.062;2023-06-19T04:22:08;97840.00;;;17.90
7389;BMP180;3735;50.136;11.062;2023-06-19T04:24:35;97840.00;;;18.00
7389;BMP180;3735;50.136;11.062;2023-06-19T04:27:01;97844.00;;;18.00
7389;BMP180;3735;50.136;11.062;2023-06-19T04:29:27;97850.00;;;18.10
7389;BMP180;3735;50.136;11.062;2023-06-19T04:31:59;97848.00;;;18.10
7389;BMP180;3735;50.136;11.062;2023-06-19T04:34:24;97843.00;;;18.20
7389;BMP180;3735;50.136;11.062;2023-06-19T04:36:51;97838.00;;;18.70
7389;BMP180;3735;50.136;11.062;2023-06-19T04:39:17;97825.00;;;19.60
7389;BMP180;3735;50.136;11.062;2023-06-19T04:41:44;97840.00;;;19.80
7389;BMP180;3735;50.136;11.062;2023-06-19T04:44:10;97838.00;;;19.80
7389;BMP180;3735;50.136;11.062;2023-06-19T04:46:42;97842.00;;;19.70
7389;BMP180;3735;50.136;11.062;2023-06-19T04:49:09;97838.00;;;19.70
7389;BMP180;3735;50.136;11.062;2023-06-19T04:51:35;97835.00;;;19.60
7389;BMP180;3735;50.136;11.062;2023-06-19T04:54:02;97845.00;;;20.10
7389;BMP180;3735;50.136;11.062;2023-06-19T04:56:28;97839.00;;;21.50
7389;BMP180;3735;50.136;11.062;2023-06-19T04:58:55;97837.00;;;22.70
7389;BMP180;3735;50.136;11.062;2023-06-19T05:01:26;97831.00;;;23.60
7389;BMP180;3735;50.136;11.062;2023-06-19T05:03:56;97837.00;;;24.10
7389;BMP180;3735;50.136;11.062;2023-06-19T05:06:25;97835.00;;;24.60
7389;BMP180;3735;50.136;11.062;2023-06-19T05:08:51;97827.00;;;25.40
7389;BMP180;3735;50.136;11.062;2023-06-19T05:11:17;97833.00;;;26.20
7389;BMP180;3735;50.136;11.062;2023-06-19T05:13:44;97836.00;;;27.00
7389;BMP180;3735;50.136;11.062;2023-06-19T05:16:10;97838.00;;;27.60
7389;BMP180;3735;50.136;11.062;2023-06-19T05:18:35;97843.00;;;28.00
7389;BMP180;3735;50.136;11.062;2023-06-19T05:21:01;97845.00;;;28.70
7389;BMP180;3735;50.136;11.062;2023-06-19T05:23:27;97846.00;;;29.80
7389;BMP180;3735;50.136;11.062;2023-06-19T05:25:53;97852.00;;;30.40
7389;BMP180;3735;50.136;11.062;2023-06-19T05:28:18;97861.00;;;30.70
7389;BMP180;3735;50.136;11.062;2023-06-19T05:30:44;97864.00;;;31.10
7389;BMP180;3735;50.136;11.062;2023-06-19T05:33:10;97868.00;;;31.30
7389;BMP180;3735;50.136;11.062;2023-06-19T05:35:42;97864.00;;;31.80
7389;BMP180;3735;50.136;11.062;2023-06-19T05:38:09;97873.00;;;31.40
7389;BMP180;3735;50.136;11.062;2023-06-19T05:40:35;97871.00;;;30.20
7389;BMP180;3735;50.136;11.062;2023-06-19T05:43:01;97877.00;;;29.20
7389;BMP180;3735;50.136;11.062;2023-06-19T05:45:27;97883.00;;;28.60
7389;BMP180;3735;50.136;11.062;2023-06-19T05:47:53;97881.00;;;27.80
7389;BMP180;3735;50.136;11.062;2023-06-19T05:50:18;97894.00;;;27.30
7389;BMP180;3735;50.136;11.062;2023-06-19T05:52:44;97899.00;;;26.90
7389;BMP180;3735;50.136;11.062;2023-06-19T05:55:11;97894.00;;;26.90
7389;BMP180;3735;50.136;11.062;2023-06-19T05:57:37;97897.00;;;26.60
7389;BMP180;3735;50.136;11.062;2023-06-19T06:00:05;97888.00;;;26.60
7389;BMP180;3735;50.136;11.062;2023-06-19T06:02:31;97900.00;;;26.40
7389;BMP180;3735;50.136;11.062;2023-06-19T06:04:57;97900.00;;;26.30
7389;BMP180;3735;50.136;11.062;2023-06-19T06:07:23;97901.00;;;26.40
7389;BMP180;3735;50.136;11.062;2023-06-19T06:09:48;97905.00;;;26.30
7389;BMP180;3735;50.136;11.062;2023-06-19T06:12:14;97904.00;;;26.10
7389;BMP180;3735;50.136;11.062;2023-06-19T06:14:43;97916.00;;;26.20
7389;BMP180;3735;50.136;11.062;2023-06-19T06:17:08;97909.00;;;26.10
7389;BMP180;3735;50.136;11.062;2023-06-19T06:19:35;97913.00;;;26.30
7389;BMP180;3735;50.136;11.062;2023-06-19T06:22:02;97922.00;;;26.10
7389;BMP180;3735;50.136;11.062;2023-06-19T06:24:28;97922.00;;;25.70
7389;BMP180;3735;50.136;11.062;2023-06-19T06:26:54;97916.00;;;25.20
7389;BMP180;3735;50.136;11.062;2023-06-19T06:29:20;97921.00;;;24.90
7389;BMP180;3735;50.136;11.062;2023-06-19T06:31:47;97933.00;;;24.60
7389;BMP180;3735;50.136;11.062;2023-06-19T06:34:13;97934.00;;;24.10
7389;BMP180;3735;50.136;11.062;2023-06-19T06:36:39;97940.00;;;24.10
7389;BMP180;3735;50.136;11.062;2023-06-19T06:39:05;97933.00;;;24.00
7389;BMP180;3735;50.136;11.062;2023-06-19T06:41:31;97947.00;;;24.00
7389;BMP180;3735;50.136;11.062;2023-06-19T06:43:57;97946.00;;;23.70
7389;BMP180;3735;50.136;11.062;2023-06-19T06:46:23;97943.00;;;23.60
7389;BMP180;3735;50.136;11.062;2023-06-19T06:48:50;97947.00;;;23.70
7389;BMP180;3735;50.136;11.062;2023-06-19T06:51:15;97959.00;;;23.50
7389;BMP180;3735;50.136;11.062;2023-06-19T06:53:41;97954.00;;;23.40
7389;BMP180;3735;50.136;11.062;2023-06-19T06:56:07;97948.00;;;23.40
7389;BMP180;3735;50.136;11.062;2023-06-19T06:58:32;97969.00;;;23.20
7389;BMP180;3735;50.136;11.062;2023-06-19T07:00:58;97958.00;;;23.30
7389;BMP180;3735;50.136;11.062;2023-06-19T07:03:24;97969.00;;;23.30
7389;BMP180;3735;50.136;11.062;2023-06-19T07:05:50;97965.00;;;23.40
7389;BMP180;3735;50.136;11.062;2023-06-19T07:08:15;97965.00;;;23.20
7389;BMP180;3735;50.136;11.062;2023-06-19T07:10:41;97963.00;;;23.50
7389;BMP180;3735;50.136;11.062;2023-06-19T07:13:07;97970.00;;;23.60
7389;BMP180;3735;50.136;11.062;2023-06-19T07:15:33;97964.00;;;24.00
7389;BMP180;3735;50.136;11.062;2023-06-19T07:17:59;97966.00;;;24.30
7389;BMP180;3735;50.136;11.062;2023-06-19T07:20:24;97958.00;;;24.30
7389;BMP180;3735;50.136;11.062;2023-06-19T07:22:52;97967.00;;;24.30
7389;BMP180;3735;50.136;11.062;2023-06-19T07:25:18;97963.00;;;24.50
7389;BMP180;3735;50.136;11.062;2023-06-19T07:27:45;97960.00;;;24.70
7389;BMP180;3735;50.136;11.062;2023-06-19T07:30:11;97959.00;;;24.90
7389;BMP180;3735;50.136;11.062;2023-06-19T07:32:37;97957.00;;;24.90
7389;BMP180;3735;50.136;11.062;2023-06-19T07:35:04;97960.00;;;24.80
7389;BMP180;3735;50.136;11.062;2023-06-19T07:37:30;97952.00;;;24.80
7389;BMP180;3735;50.136;11.062;2023-06-19T07:39:56;97957.00;;;24.50
7389;BMP180;3735;50.136;11.062;2023-06-19T07:42:22;97963.00;;;24.60
7389;BMP180;3735;50.136;11.062;2023-06-19T07:44:48;97966.00;;;25.00
7389;BMP180;3735;50.136;11.062;2023-06-19T07:47:16;97967.00;;;25.00
7389;BMP180;3735;50.136;11.062;2023-06-19T07:49:43;97956.00;;;24.80
7389;BMP180;3735;50.136;11.062;2023-06-19T07:52:09;97962.00;;;24.90
7389;BMP180;3735;50.136;11.062;2023-06-19T07:54:35;97976.00;;;25.00
7389;BMP180;3735;50.136;11.062;2023-06-19T07:57:02;97971.00;;;25.00
7389;BMP180;3735;50.136;11.062;2023-06-19T07:59:27;97981.00;;;24.80
7389;BMP180;3735;50.136;11.062;2023-06-19T08:01:53;97969.00;;;25.00
7389;BMP180;3735;50.136;11.062;2023-06-19T08:04:19;97977.00;;;24.90
7389;BMP180;3735;50.136;11.062;2023-06-19T08:06:44;97983.00;;;24.80
7389;BMP180;3735;50.136;11.062;2023-06-19T08:09:10;97987.00;;;24.60
7389;BMP180;3735;50.136;11.062;2023-06-19T08:11:36;97986.00;;;24.30
7389;BMP180;3735;50.136;11.062;2023-06-19T08:14:03;97989.00;;;24.40
7389;BMP180;3735;50.136;11.062;2023-06-19T08:16:28;97996.00;;;24.30
7389;BMP180;3735;50.136;11.062;2023-06-19T08:18:54;97992.00;;;24.30
7389;BMP180;3735;50.136;11.062;2023-06-19T08:21:20;97989.00;;;24.20
7389;BMP180;3735;50.136;11.062;2023-06-19T08:23:48;97990.00;;;24.30
7389;BMP180;3735;50.136;11.062;2023-06-19T08:26:14;98000.00;;;24.30
7389;BMP180;3735;50.136;11.062;2023-06-19T08:28:39;98004.00;;;24.30
7389;BMP180;3735;50.136;11.062;2023-06-19T08:31:11;98007.00;;;24.30
7389;BMP180;3735;50.136;11.062;2023-06-19T08:33:37;97998.00;;;24.30
7389;BMP180;3735;50.136;11.062;2023-06-19T08:36:03;98006.00;;;24.20
7389;BMP180;3735;50.136;11.062;2023-06-19T08:38:29;98003.00;;;24.20
7389;BMP180;3735;50.136;11.062;2023-06-19T08:40:55;98006.00;;;24.20
7389;BMP180;3735;50.136;11.062;2023-06-19T08:43:21;98004.00;;;24.30
7389;BMP180;3735;50.136;11.062;2023-06-19T08:46:13;98011.00;;;24.20
7389;BMP180;3735;50.136;11.062;2023-06-19T08:48:39;98007.00;;;24.40
7389;BMP180;3735;50.136;11.062;2023-06-19T08:51:05;98001.00;;;24.40
7389;BMP180;3735;50.136;11.062;2023-06-19T08:53:37;98008.00;;;24.70
7389;BMP180;3735;50.136;11.062;2023-06-19T08:56:08;98013.00;;;24.70
7389;BMP180;3735;50.136;11.062;2023-06-19T08:58:34;98014.00;;;24.90
7389;BMP180;3735;50.136;11.062;2023-06-19T09:01:00;98008.00;;;25.00
7389;BMP180;3735;50.136;11.062;2023-06-19T09:03:26;98009.00;;;25.10
7389;BMP180;3735;50.136;11.062;2023-06-19T09:05:52;98016.00;;;25.20
7389;BMP180;3735;50.136;11.062;2023-06-19T09:08:22;98010.00;;;25.30
7389;BMP180;3735;50.136;11.062;2023-06-19T09:11:04;98009.00;;;25.50
7389;BMP180;3735;50.136;11.062;2023-06-19T09:13:32;98012.00;;;25.40
7389;BMP180;3735;50.136;11.062;2023-06-19T09:18:31;98008.00;;;25.10
7389;BMP180;3735;50.136;11.062;2023-06-19T09:20:57;98005.00;;;25.10
7389;BMP180;3735;50.136;11.062;2023-06-19T09:23:24;97996.00;;;25.10
7389;BMP180;3735;50.136;11.062;2023-06-19T09:25:53;97996.00;;;25.10
7389;BMP180;3735;50.136;11.062;2023-06-19T09:28:27;97998.00;;;24.70
7389;BMP180;3735;50.136;11.062;2023-06-19T09:31:01;97996.00;;;24.70
7389;BMP180;3735;50.136;11.062;2023-06-19T09:33:33;97997.00;;;24.80
7389;BMP180;3735;50.136;11.062;2023-06-19T09:36:02;97999.00;;;24.80
7389;BMP180;3735;50.136;11.062;2023-06-19T09:38:36;98007.00;;;24.70
7389;BMP180;3735;50.136;11.062;2023-06-19T09:41:06;97999.00;;;24.70
7389;BMP180;3735;50.136;11.062;2023-06-19T09:43:42;98010.00;;;24.90
7389;BMP180;3735;50.136;11.062;2023-06-19T09:46:10;98005.00;;;24.90
7389;BMP180;3735;50.136;11.062;2023-06-19T09:48:43;98000.00;;;25.50
7389;BMP180;3735;50.136;11.062;2023-06-19T09:51:19;98009.00;;;25.40
7389;BMP180;3735;50.136;11.062;2023-06-19T09:53:47;98010.00;;;25.50
7389;BMP180;3735;50.136;11.062;2023-06-19T09:56:15;98008.00;;;25.90
7389;BMP180;3735;50.136;11.062;2023-06-19T09:58:45;98015.00;;;25.80
7389;BMP180;3735;50.136;11.062;2023-06-19T10:01:12;98017.00;;;26.10
7389;BMP180;3735;50.136;11.062;2023-06-19T10:03:40;98026.00;;;26.20
7389;BMP180;3735;50.136;11.062;2023-06-19T10:06:06;98012.00;;;26.20
7389;BMP180;3735;50.136;11.062;2023-06-19T10:08:40;98009.00;;;26.80
7389;BMP180;3735;50.136;11.062;2023-06-19T10:11:06;98012.00;;;27.10
7389;BMP180;3735;50.136;11.062;2023-06-19T10:13:35;98025.00;;;27.20
7389;BMP180;3735;50.136;11.062;2023-06-19T10:16:02;98012.00;;;27.60
7389;BMP180;3735;50.136;11.062;2023-06-19T10:18:28;98012.00;;;29.00
7389;BMP180;3735;50.136;11.062;2023-06-19T10:20:55;98012.00;;;31.00
7389;BMP180;3735;50.136;11.062;2023-06-19T10:23:24;98009.00;;;32.50
7389;BMP180;3735;50.136;11.062;2023-06-19T10:25:58;98005.00;;;33.00
7389;BMP180;3735;50.136;11.062;2023-06-19T10:33:37;98015.00;;;33.30
7389;BMP180;3735;50.136;11.062;2023-06-19T10:36:22;98018.00;;;34.60
7389;BMP180;3735;50.136;11.062;2023-06-19T10:38:49;98008.00;;;34.10
7389;BMP180;3735;50.136;11.062;2023-06-19T10:41:24;98007.00;;;33.60
7389;BMP180;3735;50.136;11.062;2023-06-19T10:44:00;98026.00;;;33.50
7389;BMP180;3735;50.136;11.062;2023-06-19T10:46:34;98029.00;;;33.80
7389;BMP180;3735;50.136;11.062;2023-06-19T10:49:02;98025.00;;;34.10
7389;BMP180;3735;50.136;11.062;2023-06-19T10:51:41;98024.00;;;34.50
7389;BMP180;3735;50.136;11.062;2023-06-19T10:54:09;98025.00;;;35.00
7389;BMP180;3735;50.136;11.062;2023-06-19T10:56:36;98018.00;;;35.50
7389;BMP180;3735;50.136;11.062;2023-06-19T10:59:08;98032.00;;;34.50
7389;BMP180;3735;50.136;11.062;2023-06-19T11:01:48;98030.00;;;34.00
7389;BMP180;3735;50.136;11.062;2023-06-19T11:04:16;98031.00;;;32.20
7389;BMP180;3735;50.136;11.062;2023-06-19T11:06:44;98028.00;;;32.40
7389;BMP180;3735;50.136;11.062;2023-06-19T11:09:11;98029.00;;;31.30
7389;BMP180;3735;50.136;11.062;2023-06-19T11:11:45;98029.00;;;32.50
7389;BMP180;3735;50.136;11.062;2023-06-19T11:14:13;98024.00;;;33.90
7389;BMP180;3735;50.136;11.062;2023-06-19T11:16:47;98027.00;;;33.80
7389;BMP180;3735;50.136;11.062;2023-06-19T11:19:19;98022.00;;;34.80
7389;BMP180;3735;50.136;11.062;2023-06-19T11:21:50;98021.00;;;32.80
7389;BMP180;3735;50.136;11.062;2023-06-19T11:24:18;98021.00;;;34.10
7389;BMP180;3735;50.136;11.062;2023-06-19T11:26:49;98030.00;;;34.30
7389;BMP180;3735;50.136;11.062;2023-06-19T11:29:23;98022.00;;;35.60
7389;BMP180;3735;50.136;11.062;2023-06-19T11:31:51;98025.00;;;35.30
7389;BMP180;3735;50.136;11.062;2023-06-19T11:34:19;98027.00;;;35.00
7389;BMP180;3735;50.136;11.062;2023-06-19T11:36:45;98013.00;;;34.60
7389;BMP180;3735;50.136;11.062;2023-06-19T11:39:13;98005.00;;;35.40
7389;BMP180;3735;50.136;11.062;2023-06-19T11:41:39;98000.00;;;36.20
7389;BMP180;3735;50.136;11.062;2023-06-19T11:44:07;98004.00;;;35.70
7389;BMP180;3735;50.136;11.062;2023-06-19T11:46:37;98003.00;;;35.20
7389;BMP180;3735;50.136;11.062;2023-06-19T11:49:14;98002.00;;;35.50
7389;BMP180;3735;50.136;11.062;2023-06-19T11:51:40;98002.00;;;35.40
7389;BMP180;3735;50.136;11.062;2023-06-19T11:54:08;98006.00;;;35.30
7389;BMP180;3735;50.136;11.062;2023-06-19T11:56:36;98002.00;;;35.60
7389;BMP180;3735;50.136;11.062;2023-06-19T11:59:02;97997.00;;;35.30
7389;BMP180;3735;50.136;11.062;2023-06-19T12:01:29;98001.00;;;35.20
7389;BMP180;3735;50.136;11.062;2023-06-19T12:03:56;97994.00;;;35.30
7389;BMP180;3735;50.136;11.062;2023-06-19T12:06:22;97989.00;;;36.10
7389;BMP180;3735;50.136;11.062;2023-06-19T12:08:47;97993.00;;;36.20
7389;BMP180;3735;50.136;11.062;2023-06-19T12:11:13;97999.00;;;36.50
7389;BMP180;3735;50.136;11.062;2023-06-19T12:13:42;97998.00;;;35.00
7389;BMP180;3735;50.136;11.062;2023-06-19T12:16:10;97999.00;;;33.60
7389;BMP180;3735;50.136;11.062;2023-06-19T12:18:36;97989.00;;;33.90
7389;BMP180;3735;50.136;11.062;2023-06-19T12:21:03;97982.00;;;34.60
7389;BMP180;3735;50.136;11.062;2023-06-19T12:23:29;97983.00;;;35.40
7389;BMP180;3735;50.136;11.062;2023-06-19T12:25:56;97984.00;;;36.10
7389;BMP180;3735;50.136;11.062;2023-06-19T12:28:22;97987.00;;;35.70
7389;BMP180;3735;50.136;11.062;2023-06-19T12:30:48;97989.00;;;35.60
7389;BMP180;3735;50.136;11.062;2023-06-19T12:33:18;97997.00;;;34.30
7389;BMP180;3735;50.136;11.062;2023-06-19T12:35:44;97991.00;;;33.90
7389;BMP180;3735;50.136;11.062;2023-06-19T12:38:11;97986.00;;;33.40
7389;BMP180;3735;50.136;11.062;2023-06-19T12:40:37;97992.00;;;33.80
7389;BMP180;3735;50.136;11.062;2023-06-19T12:43:03;97991.00;;;35.20
7389;BMP180;3735;50.136;11.062;2023-06-19T12:45:30;97992.00;;;35.00
7389;BMP180;3735;50.136;11.062;2023-06-19T12:47:56;97984.00;;;34.90
7389;BMP180;3735;50.136;11.062;2023-06-19T12:50:22;97994.00;;;34.10
7389;BMP180;3735;50.136;11.062;2023-06-19T12:52:48;97990.00;;;34.80
7389;BMP180;3735;50.136;11.062;2023-06-19T12:55:14;97979.00;;;34.20
7389;BMP180;3735;50.136;11.062;2023-06-19T12:57:40;97980.00;;;34.90
7389;BMP180;3735;50.136;11.062;2023-06-19T13:00:10;97981.00;;;35.40
7389;BMP180;3735;50.136;11.062;2023-06-19T13:02:40;97968.00;;;36.00
7389;BMP180;3735;50.136;11.062;2023-06-19T13:05:09;97975.00;;;37.20
7389;BMP180;3735;50.136;11.062;2023-06-19T13:07:35;97974.00;;;37.00
7389;BMP180;3735;50.136;11.062;2023-06-19T13:10:01;97969.00;;;36.70
7389;BMP180;3735;50.136;11.062;2023-06-19T13:12:27;97962.00;;;35.30
7389;BMP180;3735;50.136;11.062;2023-06-19T13:14:53;97960.00;;;36.00
7389;BMP180;3735;50.136;11.062;2023-06-19T13:17:19;97964.00;;;36.50
7389;BMP180;3735;50.136;11.062;2023-06-19T13:19:48;97967.00;;;35.70
7389;BMP180;3735;50.136;11.062;2023-06-19T13:22:13;97961.00;;;35.00
7389;BMP180;3735;50.136;11.062;2023-06-19T13:24:39;97953.00;;;35.70
7389;BMP180;3735;50.136;11.062;2023-06-19T13:27:05;97952.00;;;35.20
7389;BMP180;3735;50.136;11.062;2023-06-19T13:29:31;97949.00;;;35.80
7389;BMP180;3735;50.136;11.062;2023-06-19T13:31:57;97949.00;;;36.70
7389;BMP180;3735;50.136;11.062;2023-06-19T13:34:23;97955.00;;;37.10
7389;BMP180;3735;50.136;11.062;2023-06-19T13:36:49;97953.00;;;37.00
7389;BMP180;3735;50.136;11.062;2023-06-19T13:39:15;97952.00;;;34.80
7389;BMP180;3735;50.136;11.062;2023-06-19T13:41:40;97953.00;;;34.00
7389;BMP180;3735;50.136;11.062;2023-06-19T13:44:06;97947.00;;;34.00
7389;BMP180;3735;50.136;11.062;2023-06-19T13:46:32;97952.00;;;33.80
7389;BMP180;3735;50.136;11.062;2023-06-19T13:48:59;97950.00;;;34.20
7389;BMP180;3735;50.136;11.062;2023-06-19T13:51:24;97947.00;;;34.30
7389;BMP180;3735;50.136;11.062;2023-06-19T13:53:51;97943.00;;;34.60
7389;BMP180;3735;50.136;11.062;2023-06-19T13:56:18;97938.00;;;34.30
7389;BMP180;3735;50.136;11.062;2023-06-19T13:58:44;97941.00;;;33.80
7389;BMP180;3735;50.136;11.062;2023-06-19T14:01:09;97945.00;;;34.20
7389;BMP180;3735;50.136;11.062;2023-06-19T14:03:37;97935.00;;;34.40
7389;BMP180;3735;50.136;11.062;2023-06-19T14:06:05;97930.00;;;34.80
7389;BMP180;3735;50.136;11.062;2023-06-19T14:08:31;97918.00;;;35.50
7389;BMP180;3735;50.136;11.062;2023-06-19T14:10:57;97922.00;;;34.40
7389;BMP180;3735;50.136;11.062;2023-06-19T14:13:22;97926.00;;;35.20
7389;BMP180;3735;50.136;11.062;2023-06-19T14:15:48;97930.00;;;35.00
7389;BMP180;3735;50.136;11.062;2023-06-19T14:18:14;97927.00;;;34.00
7389;BMP180;3735;50.136;11.062;2023-06-19T14:20:40;97928.00;;;34.10
7389;BMP180;3735;50.136;11.062;2023-06-19T14:23:07;97929.00;;;34.00
7389;BMP180;3735;50.136;11.062;2023-06-19T14:25:34;97923.00;;;34.00
7389;BMP180;3735;50.136;11.062;2023-06-19T14:28:00;97929.00;;;34.00
7389;BMP180;3735;50.136;11.062;2023-06-19T14:30:26;97926.00;;;32.80